Time;durP1;ratioP1;P1;durP2;ratioP2;P2;SDS_P1;SDS_P2;PMS_P1;PMS_P2;Temp;Humidity;BMP_temperature;BMP_pressure;BME280_temperature;BME280_humidity;BME280_pressure;Samples;Min_cycle;Max_cycle;Signal;HPM_P1;HPM_P2
2023/12/07 00:02:16;;;;;;;91.43;38.07;;;;;;;;;;6303191;22;20343;-51
2023/12/07 00:04:42;;;;;;;99.17;41.50;;;;;;;;;;6271992;22;20151;-54
2023/12/07 00:07:08;;;;;;;80.67;36.33;;;;;;;;;;6272630;22;20135;-56
2023/12/07 00:09:34;;;;;;;77.73;36.27;;;;;;;;;;6273627;22;20135;-52
2023/12/07 00:12:00;;;;;;;84.27;37.63;;;;;;;;;;6273972;22;20191;-52
2023/12/07 00:14:26;;;;;;;82.70;35.77;;;;;;;;;;6274018;22;20191;-53
2023/12/07 00:16:52;;;;;;;84.17;38.97;;;;;;;;;;6278919;22;20150;-56
2023/12/07 00:19:18;;;;;;;80.43;36.63;;;;;;;;;;6279887;22;20176;-54
2023/12/07 00:21:44;;;;;;;77.23;35.50;;;;;;;;;;6307779;22;20128;-55
2023/12/07 00:24:10;;;;;;;72.83;34.80;;;;;;;;;;6305860;22;20135;-55
2023/12/07 00:26:38;;;;;;;73.80;35.23;;;;;;;;;;6280491;22;20179;-56
2023/12/07 00:29:03;;;;;;;69.43;33.70;;;;;;;;;;6307525;22;20271;-56
2023/12/07 00:31:29;;;;;;;72.83;34.83;;;;;;;;;;6306995;22;20476;-54
2023/12/07 00:33:55;;;;;;;73.20;35.93;;;;;;;;;;6280697;22;20142;-56
2023/12/07 00:36:22;;;;;;;76.67;35.63;;;;;;;;;;6217454;22;1414908;-56
2023/12/07 00:38:48;;;;;;;72.00;32.90;;;;;;;;;;6282860;22;20215;-54
2023/12/07 00:41:14;;;;;;;73.93;35.80;;;;;;;;;;6282942;22;20131;-56
2023/12/07 00:43:40;;;;;;;66.83;35.03;;;;;;;;;;6283484;22;20151;-52
2023/12/07 00:46:09;;;;;;;69.20;36.07;;;;;;;;;;6282603;22;20176;-53
2023/12/07 00:48:36;;;;;;;74.57;36.93;;;;;;;;;;6282720;22;20654;-51
2023/12/07 00:51:12;;;;;;;66.37;33.60;;;;;;;;;;6282666;22;20174;-55
2023/12/07 00:53:38;;;;;;;72.43;34.37;;;;;;;;;;6282239;22;20446;-54
2023/12/07 00:56:05;;;;;;;67.13;33.23;;;;;;;;;;6283026;22;20529;-53
2023/12/07 00:58:31;;;;;;;69.87;33.33;;;;;;;;;;6282558;22;20154;-55
2023/12/07 01:00:57;;;;;;;77.57;35.07;;;;;;;;;;6282704;22;20521;-55
2023/12/07 01:03:23;;;;;;;67.50;33.23;;;;;;;;;;6281869;22;20136;-51
2023/12/07 01:05:50;;;;;;;71.53;34.10;;;;;;;;;;6282420;22;20213;-50
2023/12/07 01:08:16;;;;;;;74.07;35.30;;;;;;;;;;6281250;22;20518;-57
2023/12/07 01:10:42;;;;;;;70.97;34.07;;;;;;;;;;6282300;22;20590;-56
2023/12/07 01:13:08;;;;;;;72.13;35.70;;;;;;;;;;6281514;22;20144;-56
2023/12/07 01:15:34;;;;;;;72.53;35.70;;;;;;;;;;6279552;22;20153;-52
2023/12/07 01:18:00;;;;;;;74.13;34.73;;;;;;;;;;6275658;22;20499;-54
2023/12/07 01:20:26;;;;;;;73.80;34.87;;;;;;;;;;6276308;22;20234;-54
2023/12/07 01:22:52;;;;;;;75.63;33.60;;;;;;;;;;6304459;22;20260;-50
2023/12/07 01:25:21;;;;;;;69.67;34.37;;;;;;;;;;6277736;22;20560;-53
2023/12/07 01:27:47;;;;;;;73.20;35.63;;;;;;;;;;6276303;22;20140;-51
2023/12/07 01:30:13;;;;;;;67.70;33.53;;;;;;;;;;6275850;22;20491;-52
2023/12/07 01:32:39;;;;;;;79.47;35.53;;;;;;;;;;6275747;22;20591;-50
2023/12/07 01:35:06;;;;;;;74.73;35.07;;;;;;;;;;6276153;22;20144;-50
2023/12/07 01:37:32;;;;;;;67.83;33.53;;;;;;;;;;6303594;22;20194;-54
2023/12/07 01:39:58;;;;;;;76.20;35.43;;;;;;;;;;6276877;22;20143;-53
2023/12/07 01:42:24;;;;;;;68.63;35.67;;;;;;;;;;6303804;22;20221;-54
2023/12/07 01:44:50;;;;;;;74.23;36.97;;;;;;;;;;6276642;22;20151;-54
2023/12/07 01:47:16;;;;;;;69.23;34.53;;;;;;;;;;6277001;22;20238;-55
2023/12/07 01:49:42;;;;;;;71.97;34.80;;;;;;;;;;6276549;22;20143;-50
2023/12/07 01:52:09;;;;;;;68.60;33.90;;;;;;;;;;6301967;22;20147;-51
2023/12/07 01:54:35;;;;;;;64.20;33.03;;;;;;;;;;6277161;22;20155;-49
2023/12/07 01:57:02;;;;;;;72.23;34.67;;;;;;;;;;6277021;22;20190;-50
2023/12/07 01:59:28;;;;;;;67.53;34.47;;;;;;;;;;6277912;22;20162;-49
2023/12/07 02:01:54;;;;;;;72.57;34.23;;;;;;;;;;6276405;22;20147;-52
2023/12/07 02:04:20;;;;;;;67.43;34.17;;;;;;;;;;6275941;22;20143;-49
2023/12/07 02:06:46;;;;;;;61.87;31.87;;;;;;;;;;6302901;22;20507;-52
2023/12/07 02:09:12;;;;;;;63.10;33.20;;;;;;;;;;6275381;22;20223;-55
2023/12/07 02:11:38;;;;;;;73.33;34.83;;;;;;;;;;6276379;22;20463;-56
2023/12/07 02:14:04;;;;;;;73.43;34.30;;;;;;;;;;6275732;22;20174;-51
2023/12/07 02:16:40;;;;;;;71.43;34.27;;;;;;;;;;6279551;22;20233;-54
2023/12/07 02:19:09;;;;;;;76.17;36.57;;;;;;;;;;6281071;22;20147;-49
2023/12/07 02:21:37;;;;;;;80.90;37.87;;;;;;;;;;6280378;22;20154;-50
2023/12/07 02:24:03;;;;;;;81.00;35.43;;;;;;;;;;6307814;22;20423;-50
2023/12/07 02:26:32;;;;;;;75.47;35.80;;;;;;;;;;6281602;22;20167;-54
2023/12/07 02:28:58;;;;;;;81.00;36.77;;;;;;;;;;6308591;22;20143;-55
2023/12/07 02:31:24;;;;;;;80.43;37.00;;;;;;;;;;6307671;22;20181;-53
2023/12/07 02:33:53;;;;;;;80.47;35.97;;;;;;;;;;6307862;22;20135;-53
2023/12/07 02:36:21;;;;;;;78.03;36.03;;;;;;;;;;6307834;22;20151;-52
2023/12/07 02:38:47;;;;;;;70.57;34.93;;;;;;;;;;6281562;22;20155;-53
2023/12/07 02:41:14;;;;;;;79.23;35.67;;;;;;;;;;6280825;22;20205;-51
2023/12/07 02:43:40;;;;;;;72.17;34.63;;;;;;;;;;6280928;22;20395;-53
2023/12/07 02:46:06;;;;;;;73.60;34.30;;;;;;;;;;6281326;22;20696;-50
2023/12/07 02:48:32;;;;;;;77.10;34.50;;;;;;;;;;6280730;22;20132;-50
2023/12/07 02:50:58;;;;;;;75.03;34.93;;;;;;;;;;6307781;22;20166;-54
2023/12/07 02:53:24;;;;;;;65.67;31.73;;;;;;;;;;6280944;22;20143;-51
2023/12/07 02:55:50;;;;;;;68.73;32.87;;;;;;;;;;6282006;22;20135;-49
2023/12/07 02:58:16;;;;;;;78.97;34.70;;;;;;;;;;6281500;22;20242;-50
2023/12/07 03:00:42;;;;;;;69.43;33.63;;;;;;;;;;6281735;22;20144;-50
2023/12/07 03:03:08;;;;;;;78.27;34.63;;;;;;;;;;6281080;22;20146;-51
2023/12/07 03:05:34;;;;;;;71.87;33.13;;;;;;;;;;6283135;22;20271;-52
2023/12/07 03:08:00;;;;;;;72.67;34.37;;;;;;;;;;6309467;22;20565;-54
2023/12/07 03:10:26;;;;;;;66.30;32.57;;;;;;;;;;6309607;22;20120;-51
2023/12/07 03:12:52;;;;;;;62.97;30.93;;;;;;;;;;6282863;22;20198;-51
2023/12/07 03:15:19;;;;;;;66.17;33.20;;;;;;;;;;6309322;22;20131;-52
2023/12/07 03:17:45;;;;;;;65.93;31.83;;;;;;;;;;6283895;22;20552;-50
2023/12/07 03:20:11;;;;;;;66.23;31.97;;;;;;;;;;6282719;22;20136;-53
2023/12/07 03:22:37;;;;;;;61.50;31.63;;;;;;;;;;6282636;22;20163;-52
2023/12/07 03:25:03;;;;;;;67.97;32.70;;;;;;;;;;6283731;22;20213;-51
2023/12/07 03:27:29;;;;;;;53.10;28.53;;;;;;;;;;6282732;22;20162;-50
2023/12/07 03:29:55;;;;;;;64.70;32.77;;;;;;;;;;6283917;22;20151;-54
2023/12/07 03:32:21;;;;;;;59.57;30.07;;;;;;;;;;6283384;22;20140;-51
2023/12/07 03:34:47;;;;;;;62.77;30.60;;;;;;;;;;6309464;22;20128;-49
2023/12/07 03:37:13;;;;;;;59.90;29.60;;;;;;;;;;6277228;22;20222;-49
2023/12/07 03:39:44;;;;;;;55.43;29.17;;;;;;;;;;6276795;22;20148;-52
2023/12/07 03:42:10;;;;;;;54.77;30.70;;;;;;;;;;6277141;22;20163;-50
2023/12/07 03:44:36;;;;;;;64.97;32.87;;;;;;;;;;6275459;22;20522;-54
2023/12/07 03:47:02;;;;;;;52.70;30.83;;;;;;;;;;6277131;22;20182;-52
2023/12/07 03:49:28;;;;;;;62.53;30.23;;;;;;;;;;6277421;22;20140;-54
2023/12/07 03:51:55;;;;;;;59.83;30.83;;;;;;;;;;6278077;22;20135;-49
2023/12/07 03:54:22;;;;;;;58.90;30.63;;;;;;;;;;6277040;22;20166;-53
2023/12/07 03:56:50;;;;;;;61.83;31.33;;;;;;;;;;6278134;22;20141;-55
2023/12/07 03:59:16;;;;;;;56.30;31.03;;;;;;;;;;6277657;22;20436;-51
2023/12/07 04:01:42;;;;;;;61.57;31.90;;;;;;;;;;6277181;22;20608;-51
2023/12/07 04:04:08;;;;;;;58.20;30.10;;;;;;;;;;6277389;22;20179;-52
2023/12/07 04:06:34;;;;;;;55.93;30.47;;;;;;;;;;6277239;22;20172;-56
2023/12/07 04:09:00;;;;;;;52.73;30.37;;;;;;;;;;6276408;22;20146;-53
2023/12/07 04:11:26;;;;;;;56.30;30.97;;;;;;;;;;6276410;22;20140;-52
2023/12/07 04:13:52;;;;;;;58.90;31.17;;;;;;;;;;6278008;22;20182;-54
2023/12/07 04:16:19;;;;;;;57.30;30.03;;;;;;;;;;6274542;22;20465;-52
2023/12/07 04:18:45;;;;;;;59.23;30.70;;;;;;;;;;6275325;22;20135;-51
2023/12/07 04:21:11;;;;;;;61.67;32.20;;;;;;;;;;6271655;22;20140;-54
2023/12/07 04:23:37;;;;;;;57.80;30.23;;;;;;;;;;6270423;22;20409;-56
2023/12/07 04:26:03;;;;;;;56.80;31.87;;;;;;;;;;6272353;22;20168;-52
2023/12/07 04:28:29;;;;;;;57.43;30.50;;;;;;;;;;6274425;22;20167;-55
2023/12/07 04:33:59;;;;;;;62.83;32.60;;;;;;;;;;6275159;22;20211;-56
2023/12/07 04:36:25;;;;;;;56.87;31.60;;;;;;;;;;6277233;22;20529;-50
2023/12/07 04:38:51;;;;;;;56.50;30.93;;;;;;;;;;6304579;22;20136;-52
2023/12/07 04:41:17;;;;;;;59.67;33.27;;;;;;;;;;6278512;22;20230;-55
2023/12/07 04:43:43;;;;;;;60.60;32.67;;;;;;;;;;6277632;22;20241;-51
2023/12/07 04:46:09;;;;;;;56.57;28.53;;;;;;;;;;6303630;22;20181;-51
2023/12/07 04:48:35;;;;;;;55.67;31.53;;;;;;;;;;6276168;22;20174;-56
2023/12/07 04:51:01;;;;;;;59.30;30.33;;;;;;;;;;6276810;22;20383;-53
2023/12/07 04:53:27;;;;;;;54.63;31.07;;;;;;;;;;6304188;22;20514;-54
2023/12/07 04:55:53;;;;;;;56.50;30.63;;;;;;;;;;6276632;22;20136;-51
2023/12/07 04:58:19;;;;;;;53.73;31.53;;;;;;;;;;6303751;22;20193;-50
2023/12/07 05:00:45;;;;;;;53.77;29.83;;;;;;;;;;6275994;22;20525;-54
2023/12/07 05:03:11;;;;;;;60.67;31.70;;;;;;;;;;6276610;22;20144;-52
2023/12/07 05:05:37;;;;;;;49.17;28.70;;;;;;;;;;6274987;22;20469;-49
2023/12/07 05:08:03;;;;;;;50.10;28.83;;;;;;;;;;6302562;22;20249;-51
2023/12/07 05:10:29;;;;;;;49.73;29.57;;;;;;;;;;6275990;22;20162;-50
2023/12/07 05:12:56;;;;;;;49.80;28.77;;;;;;;;;;6273859;22;20148;-53
2023/12/07 05:15:22;;;;;;;53.60;30.10;;;;;;;;;;6276218;22;20150;-52
2023/12/07 05:17:48;;;;;;;53.20;30.20;;;;;;;;;;6280592;22;20473;-52
2023/12/07 05:20:15;;;;;;;51.97;30.03;;;;;;;;;;6280381;22;20135;-51
2023/12/07 05:22:41;;;;;;;53.13;29.83;;;;;;;;;;6306375;22;20124;-54
2023/12/07 05:25:08;;;;;;;49.70;29.27;;;;;;;;;;6279385;22;20224;-52
2023/12/07 05:27:34;;;;;;;48.23;28.30;;;;;;;;;;6279419;22;20132;-52
2023/12/07 05:30:01;;;;;;;55.53;29.90;;;;;;;;;;6280058;22;20224;-50
2023/12/07 05:32:27;;;;;;;48.57;26.70;;;;;;;;;;6280011;22;20522;-56
2023/12/07 05:34:53;;;;;;;54.57;27.83;;;;;;;;;;6281513;22;20428;-51
2023/12/07 05:37:19;;;;;;;50.00;27.10;;;;;;;;;;6281417;22;20673;-51
2023/12/07 05:39:45;;;;;;;42.60;25.73;;;;;;;;;;6281930;22;20148;-52
2023/12/07 05:42:11;;;;;;;47.07;26.50;;;;;;;;;;6307615;22;20124;-51
2023/12/07 05:44:37;;;;;;;43.37;25.90;;;;;;;;;;6281753;22;20153;-49
2023/12/07 05:47:03;;;;;;;43.43;25.73;;;;;;;;;;6307396;22;20160;-51
2023/12/07 05:49:30;;;;;;;46.90;25.67;;;;;;;;;;6280393;22;20243;-52
2023/12/07 05:51:55;;;;;;;41.47;26.00;;;;;;;;;;6280180;22;20139;-54
2023/12/07 05:54:24;;;;;;;46.60;28.00;;;;;;;;;;6305846;22;20154;-49
2023/12/07 05:56:56;;;;;;;41.10;24.13;;;;;;;;;;6306320;22;20132;-53
2023/12/07 05:59:22;;;;;;;46.87;26.67;;;;;;;;;;6279611;22;20162;-55
2023/12/07 06:01:51;;;;;;;43.77;25.93;;;;;;;;;;6278243;22;20148;-55
2023/12/07 06:04:17;;;;;;;43.27;24.00;;;;;;;;;;6304490;22;20207;-55
2023/12/07 06:06:43;;;;;;;47.17;26.07;;;;;;;;;;6277097;22;20167;-52
2023/12/07 06:09:10;;;;;;;40.57;24.90;;;;;;;;;;6277487;22;20529;-54
2023/12/07 06:11:36;;;;;;;41.47;24.63;;;;;;;;;;6275748;22;20732;-55
2023/12/07 06:14:02;;;;;;;38.27;23.30;;;;;;;;;;6274836;22;20150;-54
2023/12/07 06:16:29;;;;;;;44.77;25.73;;;;;;;;;;6276000;22;20182;-53
2023/12/07 06:18:55;;;;;;;42.77;26.33;;;;;;;;;;6303089;22;20725;-55
2023/12/07 06:21:22;;;;;;;42.63;25.43;;;;;;;;;;6278759;22;20624;-50
2023/12/07 06:23:48;;;;;;;43.70;25.57;;;;;;;;;;6277689;22;20670;-52
2023/12/07 06:26:14;;;;;;;42.40;25.73;;;;;;;;;;6277909;22;20242;-52
2023/12/07 06:28:42;;;;;;;42.80;26.47;;;;;;;;;;6277671;22;20148;-51
2023/12/07 06:31:08;;;;;;;46.43;25.50;;;;;;;;;;6276793;22;20230;-54
2023/12/07 06:33:34;;;;;;;39.97;24.67;;;;;;;;;;6304162;22;20191;-52
2023/12/07 06:36:03;;;;;;;43.00;25.60;;;;;;;;;;6303539;22;20627;-56
2023/12/07 06:38:29;;;;;;;48.57;27.57;;;;;;;;;;6274887;22;20191;-55
2023/12/07 06:40:56;;;;;;;42.30;25.13;;;;;;;;;;6276264;22;20505;-55
2023/12/07 06:43:22;;;;;;;46.37;26.83;;;;;;;;;;6276531;22;20152;-54
2023/12/07 06:45:48;;;;;;;40.60;24.93;;;;;;;;;;6273180;22;20460;-53
2023/12/07 06:48:14;;;;;;;40.13;25.17;;;;;;;;;;6273648;22;20707;-51
2023/12/07 06:50:41;;;;;;;38.07;24.17;;;;;;;;;;6274544;22;20143;-53
2023/12/07 06:53:07;;;;;;;41.07;25.73;;;;;;;;;;6275771;22;20724;-55
2023/12/07 06:55:33;;;;;;;46.80;26.97;;;;;;;;;;6274120;22;20136;-55
2023/12/07 06:57:59;;;;;;;46.07;26.30;;;;;;;;;;6275349;22;20188;-54
2023/12/07 07:00:25;;;;;;;49.87;28.80;;;;;;;;;;6276226;22;20137;-53
2023/12/07 07:02:51;;;;;;;43.73;26.67;;;;;;;;;;6272750;22;20149;-52
2023/12/07 07:05:17;;;;;;;48.47;26.97;;;;;;;;;;6270404;22;20192;-53
2023/12/07 07:07:43;;;;;;;48.07;27.60;;;;;;;;;;6270552;22;20136;-51
2023/12/07 07:10:11;;;;;;;48.27;27.87;;;;;;;;;;6270956;22;20766;-53
2023/12/07 07:12:37;;;;;;;51.30;28.97;;;;;;;;;;6271082;22;20137;-51
2023/12/07 07:15:03;;;;;;;52.57;28.73;;;;;;;;;;6270509;22;20573;-51
2023/12/07 07:17:29;;;;;;;44.63;28.87;;;;;;;;;;6271687;22;20145;-52
2023/12/07 07:19:55;;;;;;;52.00;30.30;;;;;;;;;;6273828;22;20514;-51
2023/12/07 07:22:22;;;;;;;49.40;28.47;;;;;;;;;;6274652;22;20121;-52
2023/12/07 07:24:48;;;;;;;45.90;27.77;;;;;;;;;;6273950;22;20214;-49
2023/12/07 07:27:14;;;;;;;41.80;26.30;;;;;;;;;;6274150;22;20144;-52
2023/12/07 07:29:40;;;;;;;45.63;26.90;;;;;;;;;;6275248;22;20233;-54
2023/12/07 07:32:06;;;;;;;43.27;26.40;;;;;;;;;;6271900;22;20530;-52
2023/12/07 07:34:32;;;;;;;45.53;26.87;;;;;;;;;;6272441;22;20129;-53
2023/12/07 07:36:58;;;;;;;45.70;27.87;;;;;;;;;;6271707;22;20460;-54
2023/12/07 07:39:24;;;;;;;46.43;28.27;;;;;;;;;;6271958;22;20149;-52
2023/12/07 07:41:51;;;;;;;48.37;27.77;;;;;;;;;;6272929;22;20565;-54
2023/12/07 07:44:17;;;;;;;50.60;28.60;;;;;;;;;;6271448;22;20176;-53
2023/12/07 07:46:43;;;;;;;52.03;30.77;;;;;;;;;;6270730;22;20484;-54
2023/12/07 07:49:09;;;;;;;50.67;30.30;;;;;;;;;;6274346;22;20183;-51
2023/12/07 07:51:35;;;;;;;50.03;29.70;;;;;;;;;;6272864;22;20457;-52
2023/12/07 07:54:01;;;;;;;46.13;28.73;;;;;;;;;;6273677;22;20184;-51
2023/12/07 07:56:27;;;;;;;42.27;26.87;;;;;;;;;;6273476;22;20171;-50
2023/12/07 07:58:54;;;;;;;45.37;28.77;;;;;;;;;;6273768;22;20153;-52
2023/12/07 08:01:20;;;;;;;46.37;29.43;;;;;;;;;;6274954;22;20154;-51
2023/12/07 08:03:46;;;;;;;50.40;28.43;;;;;;;;;;6274854;22;20140;-50
2023/12/07 08:06:12;;;;;;;49.33;28.63;;;;;;;;;;6273265;22;20168;-49
2023/12/07 08:08:38;;;;;;;46.47;28.43;;;;;;;;;;6272924;22;20140;-50
2023/12/07 08:11:05;;;;;;;47.50;28.40;;;;;;;;;;6264854;22;20155;-50
2023/12/07 08:13:31;;;;;;;46.97;28.93;;;;;;;;;;6262837;22;20141;-54
2023/12/07 08:15:57;;;;;;;51.43;29.87;;;;;;;;;;6265756;22;20149;-50
2023/12/07 08:18:32;;;;;;;46.93;28.03;;;;;;;;;;6272236;22;20203;-50
2023/12/07 08:20:58;;;;;;;45.00;27.50;;;;;;;;;;6272101;22;20559;-55
2023/12/07 08:23:24;;;;;;;51.37;29.20;;;;;;;;;;6273835;22;20182;-53
2023/12/07 08:25:50;;;;;;;42.40;27.40;;;;;;;;;;6274762;22;20456;-53
2023/12/07 08:28:17;;;;;;;45.27;28.50;;;;;;;;;;6275406;22;20148;-53
2023/12/07 08:30:44;;;;;;;44.17;27.60;;;;;;;;;;6275170;22;20141;-49
2023/12/07 08:33:09;;;;;;;47.47;28.50;;;;;;;;;;6274483;22;20160;-51
2023/12/07 08:35:37;;;;;;;47.47;27.23;;;;;;;;;;6274181;22;20155;-54
2023/12/07 08:38:04;;;;;;;49.83;28.83;;;;;;;;;;6274680;22;20306;-53
2023/12/07 08:40:30;;;;;;;47.37;29.50;;;;;;;;;;6274828;22;20144;-56
2023/12/07 08:42:56;;;;;;;49.60;28.87;;;;;;;;;;6275250;22;20152;-51
2023/12/07 08:45:23;;;;;;;49.40;29.00;;;;;;;;;;6275512;22;20180;-51
2023/12/07 08:47:49;;;;;;;49.97;28.63;;;;;;;;;;6275388;22;20497;-50
2023/12/07 08:50:16;;;;;;;49.67;28.70;;;;;;;;;;6274394;22;20175;-52
2023/12/07 08:52:42;;;;;;;45.73;27.23;;;;;;;;;;6275321;22;20136;-51
2023/12/07 08:55:08;;;;;;;44.33;27.23;;;;;;;;;;6274405;22;20164;-52
2023/12/07 08:57:34;;;;;;;45.23;26.87;;;;;;;;;;6272127;22;20155;-51
2023/12/07 09:00:00;;;;;;;41.93;27.50;;;;;;;;;;6271495;22;20140;-51
2023/12/07 09:02:26;;;;;;;40.37;26.63;;;;;;;;;;6269736;22;20270;-51
2023/12/07 09:04:52;;;;;;;49.30;29.07;;;;;;;;;;6268403;22;20131;-52
2023/12/07 09:07:18;;;;;;;54.33;31.37;;;;;;;;;;6268502;22;20183;-54
2023/12/07 09:09:47;;;;;;;49.60;29.63;;;;;;;;;;6269499;22;20144;-54
2023/12/07 09:12:14;;;;;;;52.17;30.37;;;;;;;;;;6269822;22;20144;-50
2023/12/07 09:14:40;;;;;;;54.03;30.97;;;;;;;;;;6270037;22;20253;-51
2023/12/07 09:17:06;;;;;;;52.27;29.40;;;;;;;;;;6270194;22;20128;-49
2023/12/07 09:19:32;;;;;;;47.23;29.80;;;;;;;;;;6266639;22;20140;-56
2023/12/07 09:21:58;;;;;;;53.43;29.60;;;;;;;;;;6267834;22;20226;-54
2023/12/07 09:24:24;;;;;;;55.30;30.50;;;;;;;;;;6267820;22;20179;-54
2023/12/07 09:26:50;;;;;;;50.00;30.13;;;;;;;;;;6267522;22;20156;-53
2023/12/07 09:29:17;;;;;;;50.60;29.27;;;;;;;;;;6268139;22;20214;-53
2023/12/07 09:31:42;;;;;;;60.37;34.57;;;;;;;;;;6269544;22;20577;-52
2023/12/07 09:34:09;;;;;;;54.03;33.33;;;;;;;;;;6269493;22;20625;-53
2023/12/07 09:36:35;;;;;;;56.47;33.30;;;;;;;;;;6274487;22;20183;-53
2023/12/07 09:39:01;;;;;;;57.93;33.30;;;;;;;;;;6275318;22;20190;-54
2023/12/07 09:41:29;;;;;;;57.37;31.57;;;;;;;;;;6275831;22;20446;-53
2023/12/07 09:43:55;;;;;;;56.80;32.70;;;;;;;;;;6303717;22;20634;-52
2023/12/07 09:46:21;;;;;;;54.50;33.10;;;;;;;;;;6275459;22;20180;-49
2023/12/07 09:48:48;;;;;;;52.93;30.67;;;;;;;;;;6302794;22;20124;-54
2023/12/07 09:51:16;;;;;;;46.37;29.20;;;;;;;;;;6275716;22;20147;-55
2023/12/07 09:53:43;;;;;;;45.57;30.00;;;;;;;;;;6278014;22;20139;-53
2023/12/07 09:56:10;;;;;;;49.17;29.10;;;;;;;;;;6277086;22;20147;-53
2023/12/07 09:58:36;;;;;;;51.07;31.00;;;;;;;;;;6277788;22;20151;-54
2023/12/07 10:01:03;;;;;;;47.90;30.93;;;;;;;;;;6305173;22;20131;-52
2023/12/07 10:03:30;;;;;;;47.53;30.87;;;;;;;;;;6303774;22;20132;-52
2023/12/07 10:05:58;;;;;;;56.47;33.77;;;;;;;;;;6305309;22;20229;-50
2023/12/07 10:08:30;;;;;;;52.83;32.03;;;;;;;;;;6306432;22;20148;-53
2023/12/07 10:11:04;;;;;;;53.53;32.27;;;;;;;;;;6278297;22;20226;-52
2023/12/07 10:13:31;;;;;;;51.83;31.67;;;;;;;;;;6277896;22;20147;-49
2023/12/07 10:16:08;;;;;;;55.33;33.77;;;;;;;;;;6276060;22;20151;-49
2023/12/07 10:18:35;;;;;;;61.10;35.53;;;;;;;;;;6278199;22;20143;-51
2023/12/07 10:21:02;;;;;;;56.77;34.63;;;;;;;;;;6277975;22;20529;-49
2023/12/07 10:23:31;;;;;;;54.60;35.00;;;;;;;;;;6303761;22;20150;-52
2023/12/07 10:25:58;;;;;;;54.77;31.63;;;;;;;;;;6304210;22;20576;-49
2023/12/07 10:28:24;;;;;;;56.43;33.90;;;;;;;;;;6276368;22;20147;-52
2023/12/07 10:30:52;;;;;;;63.53;34.20;;;;;;;;;;6276147;22;20170;-52
2023/12/07 10:33:20;;;;;;;57.93;33.43;;;;;;;;;;6301895;22;20120;-52
2023/12/07 10:35:50;;;;;;;58.03;34.33;;;;;;;;;;6274125;22;20150;-50
2023/12/07 10:38:19;;;;;;;53.13;33.50;;;;;;;;;;6267388;22;20191;-57
2023/12/07 10:40:46;;;;;;;54.97;33.70;;;;;;;;;;6270649;22;20183;-58
2023/12/07 10:43:13;;;;;;;56.17;33.33;;;;;;;;;;6269989;22;20235;-53
2023/12/07 10:45:40;;;;;;;54.77;33.10;;;;;;;;;;6269504;22;20179;-55
2023/12/07 10:48:11;;;;;;;52.73;32.77;;;;;;;;;;6269666;22;20227;-56
2023/12/07 10:50:41;;;;;;;61.40;35.90;;;;;;;;;;6270711;22;20136;-51
2023/12/07 10:53:10;;;;;;;56.50;34.40;;;;;;;;;;6270736;22;20166;-55
2023/12/07 10:55:43;;;;;;;60.27;35.40;;;;;;;;;;6271270;22;20222;-50
2023/12/07 10:58:13;;;;;;;58.70;35.30;;;;;;;;;;6244268;22;20160;-52
2023/12/07 11:00:46;;;;;;;64.43;37.17;;;;;;;;;;6271051;22;20129;-54
2023/12/07 11:03:17;;;;;;;63.23;37.27;;;;;;;;;;6271689;22;20147;-53
2023/12/07 11:05:46;;;;;;;59.27;35.87;;;;;;;;;;6273407;22;20170;-54
2023/12/07 11:08:16;;;;;;;62.33;34.60;;;;;;;;;;6272480;22;20552;-51
2023/12/07 11:10:59;;;;;;;57.70;34.33;;;;;;;;;;6271844;22;20214;-52
2023/12/07 11:13:30;;;;;;;62.57;36.03;;;;;;;;;;6272006;22;20659;-51
2023/12/07 11:15:57;;;;;;;60.70;36.30;;;;;;;;;;6273095;22;20136;-50
2023/12/07 11:18:26;;;;;;;64.37;37.13;;;;;;;;;;6272162;22;20136;-50
2023/12/07 11:20:56;;;;;;;65.13;36.87;;;;;;;;;;6271670;22;20156;-55
2023/12/07 11:23:22;;;;;;;69.13;37.50;;;;;;;;;;6273930;22;20194;-53
2023/12/07 11:25:50;;;;;;;62.93;36.03;;;;;;;;;;6273199;22;20263;-49
2023/12/07 11:28:16;;;;;;;69.73;40.27;;;;;;;;;;6272121;22;20631;-52
2023/12/07 11:30:43;;;;;;;66.83;37.20;;;;;;;;;;6274754;22;20140;-55
2023/12/07 11:33:12;;;;;;;56.07;32.60;;;;;;;;;;6273231;22;20519;-51
2023/12/07 11:35:57;;;;;;;58.57;35.03;;;;;;;;;;6272993;22;20139;-52
2023/12/07 11:38:24;;;;;;;67.03;36.57;;;;;;;;;;6300379;22;20706;-53
2023/12/07 11:40:51;;;;;;;64.53;36.43;;;;;;;;;;6279426;22;20774;-52
2023/12/07 11:43:19;;;;;;;64.50;37.37;;;;;;;;;;6279087;22;20300;-54
2023/12/07 11:45:51;;;;;;;68.27;36.13;;;;;;;;;;6278946;22;20182;-51
2023/12/07 11:48:22;;;;;;;62.77;35.37;;;;;;;;;;6280510;22;20139;-55
2023/12/07 11:51:02;;;;;;;60.53;34.53;;;;;;;;;;6279998;22;20466;-51
2023/12/07 11:53:32;;;;;;;57.37;33.87;;;;;;;;;;6281136;22;20146;-51
2023/12/07 11:55:59;;;;;;;57.33;32.83;;;;;;;;;;6277542;22;20164;-54
2023/12/07 11:58:28;;;;;;;57.83;33.73;;;;;;;;;;6277834;22;20143;-53
2023/12/07 12:00:56;;;;;;;57.90;31.57;;;;;;;;;;6304382;22;20142;-49
2023/12/07 12:03:27;;;;;;;52.57;32.40;;;;;;;;;;6303457;22;20566;-51
2023/12/07 12:05:57;;;;;;;60.23;33.97;;;;;;;;;;6304728;22;20448;-53
2023/12/07 12:08:23;;;;;;;50.17;30.97;;;;;;;;;;6303319;22;20236;-51
2023/12/07 12:10:53;;;;;;;53.73;31.07;;;;;;;;;;6301971;22;20536;-52
2023/12/07 12:13:19;;;;;;;48.27;29.33;;;;;;;;;;6304105;22;20174;-52
2023/12/07 12:15:47;;;;;;;56.13;29.50;;;;;;;;;;6276672;22;20140;-52
2023/12/07 12:18:17;;;;;;;50.33;30.67;;;;;;;;;;6250631;22;20143;-53
2023/12/07 12:20:45;;;;;;;45.20;28.57;;;;;;;;;;6302389;22;20528;-52
2023/12/07 12:23:11;;;;;;;47.43;29.07;;;;;;;;;;6274466;22;20234;-53
2023/12/07 12:25:39;;;;;;;49.13;29.03;;;;;;;;;;6275974;22;20172;-56
2023/12/07 12:28:08;;;;;;;47.03;27.73;;;;;;;;;;6276624;22;20175;-51
2023/12/07 12:30:35;;;;;;;41.17;27.20;;;;;;;;;;6275272;22;20143;-52
2023/12/07 12:33:01;;;;;;;42.10;26.63;;;;;;;;;;6275030;22;20552;-53
2023/12/07 12:35:28;;;;;;;40.63;26.70;;;;;;;;;;6275356;22;20201;-54
2023/12/07 12:37:57;;;;;;;49.33;30.10;;;;;;;;;;6275492;22;20199;-52
2023/12/07 12:40:24;;;;;;;43.90;27.63;;;;;;;;;;6300771;22;20136;-49
2023/12/07 12:42:53;;;;;;;43.33;27.83;;;;;;;;;;6300696;22;20702;-53
2023/12/07 12:45:19;;;;;;;45.50;26.97;;;;;;;;;;6248719;22;22085;-54
2023/12/07 12:47:47;;;;;;;42.83;27.00;;;;;;;;;;6273581;22;20147;-54
2023/12/07 12:50:36;;;;;;;42.13;26.63;;;;;;;;;;6300112;22;20437;-52
2023/12/07 12:53:05;;;;;;;41.10;27.40;;;;;;;;;;6250075;22;20167;-51
2023/12/07 12:55:32;;;;;;;44.37;26.67;;;;;;;;;;6276153;22;20151;-51
2023/12/07 12:58:00;;;;;;;39.70;25.53;;;;;;;;;;6301332;22;20143;-54
2023/12/07 13:00:26;;;;;;;45.00;28.50;;;;;;;;;;6275270;22;20536;-52
2023/12/07 13:02:52;;;;;;;46.37;28.27;;;;;;;;;;6301937;22;20128;-51
2023/12/07 13:05:20;;;;;;;42.50;26.80;;;;;;;;;;6275467;22;20154;-54
2023/12/07 13:07:48;;;;;;;54.90;31.70;;;;;;;;;;6301368;22;20204;-53
2023/12/07 13:10:15;;;;;;;56.23;33.80;;;;;;;;;;6300936;22;20726;-50
2023/12/07 13:12:43;;;;;;;43.40;26.87;;;;;;;;;;6276058;22;20416;-52
2023/12/07 13:15:10;;;;;;;44.80;28.00;;;;;;;;;;6302959;22;20258;-54
2023/12/07 13:17:38;;;;;;;46.67;29.00;;;;;;;;;;6302335;22;20135;-52
2023/12/07 13:20:07;;;;;;;43.90;28.57;;;;;;;;;;6302491;22;20158;-55
2023/12/07 13:22:33;;;;;;;50.17;29.97;;;;;;;;;;6301299;22;20127;-55
2023/12/07 13:24:59;;;;;;;50.27;29.97;;;;;;;;;;6298415;22;20538;-53
2023/12/07 13:27:27;;;;;;;53.10;31.13;;;;;;;;;;6272383;22;20260;-52
2023/12/07 13:29:55;;;;;;;49.57;30.43;;;;;;;;;;6272636;22;20226;-53
2023/12/07 13:32:23;;;;;;;51.93;30.80;;;;;;;;;;6273444;22;20139;-51
2023/12/07 13:34:49;;;;;;;44.23;28.70;;;;;;;;;;6274067;22;20746;-54
2023/12/07 13:37:16;;;;;;;42.50;27.97;;;;;;;;;;6270997;22;20189;-51
2023/12/07 13:39:43;;;;;;;45.57;28.20;;;;;;;;;;6271024;22;20149;-54
2023/12/07 13:42:12;;;;;;;48.63;27.93;;;;;;;;;;6271008;22;20144;-54
2023/12/07 13:44:38;;;;;;;41.90;26.80;;;;;;;;;;6271577;22;20561;-54
2023/12/07 13:47:05;;;;;;;40.37;26.60;;;;;;;;;;6272304;22;20176;-54
2023/12/07 13:49:31;;;;;;;39.87;24.63;;;;;;;;;;6270675;22;20145;-54
2023/12/07 13:51:59;;;;;;;35.90;24.57;;;;;;;;;;6271349;22;20527;-53
2023/12/07 13:54:27;;;;;;;42.63;26.23;;;;;;;;;;6270612;22;20174;-53
2023/12/07 13:56:53;;;;;;;39.97;25.40;;;;;;;;;;6268292;22;20140;-51
2023/12/07 13:59:19;;;;;;;35.50;23.80;;;;;;;;;;6268653;22;20539;-53
2023/12/07 14:01:47;;;;;;;37.43;24.73;;;;;;;;;;6266923;22;20155;-55
2023/12/07 14:04:13;;;;;;;39.70;24.80;;;;;;;;;;6268008;22;20128;-53
2023/12/07 14:06:39;;;;;;;38.47;24.53;;;;;;;;;;6267632;22;20232;-55
2023/12/07 14:09:05;;;;;;;39.13;24.37;;;;;;;;;;6266904;22;20541;-53
2023/12/07 14:11:32;;;;;;;35.37;22.13;;;;;;;;;;6268764;22;20444;-55
2023/12/07 14:13:58;;;;;;;35.93;24.20;;;;;;;;;;6269428;22;20549;-54
2023/12/07 14:16:24;;;;;;;37.53;24.87;;;;;;;;;;6268043;22;20137;-55
2023/12/07 14:18:51;;;;;;;42.70;27.07;;;;;;;;;;6270026;22;20144;-55